createdAt,value
2022-10-26T00:01:16.203Z,23.05
2022-10-26T00:03:45.424Z,21.08
2022-10-26T00:06:13.540Z,24.13
2022-10-26T00:08:41.074Z,26.08
2022-10-26T00:11:08.816Z,23.88
2022-10-26T00:13:36.634Z,21.30
2022-10-26T00:16:10.027Z,22.90
2022-10-26T00:18:37.228Z,23.35
2022-10-26T00:21:08.439Z,19.40
2022-10-26T00:23:35.768Z,25.88
2022-10-26T00:26:03.021Z,23.30
2022-10-26T00:28:30.125Z,18.20
2022-10-26T00:31:04.886Z,19.52
2022-10-26T00:33:32.546Z,21.52
2022-10-26T00:35:59.653Z,20.00
2022-10-26T00:38:26.697Z,19.20
2022-10-26T00:40:53.642Z,19.65
2022-10-26T00:43:20.491Z,26.25
2022-10-26T00:45:49.802Z,22.08
2022-10-26T00:48:24.902Z,27.17
2022-10-26T00:50:54.218Z,23.73
2022-10-26T00:53:21.313Z,21.77
2022-10-26T00:55:52.447Z,20.13
2022-10-26T00:58:21.613Z,20.83
2022-10-26T01:00:49.821Z,19.42
2022-10-26T01:03:17.835Z,18.33
2022-10-26T01:05:47.625Z,21.58
2022-10-26T01:08:17.006Z,21.88
2022-10-26T01:10:44.408Z,20.73
2022-10-26T01:13:12.721Z,20.95
2022-10-26T01:15:56.824Z,22.95
2022-10-26T01:18:37.936Z,20.77
2022-10-26T01:21:05.122Z,23.83
2022-10-26T01:24:20.151Z,22.75
2022-10-26T01:27:05.663Z,20.00
2022-10-26T01:29:33.091Z,24.20
2022-10-26T01:32:14.236Z,21.42
2022-10-26T01:34:52.130Z,22.60
2022-10-26T01:37:25.505Z,23.15
2022-10-26T01:40:06.422Z,23.45
2022-10-26T01:42:36.047Z,23.63
2022-10-26T01:45:09.894Z,21.42
2022-10-26T01:47:38.730Z,18.02
2022-10-26T01:50:07.182Z,24.63
2022-10-26T01:52:34.171Z,22.20
2022-10-26T01:55:39.248Z,19.33
2022-10-26T01:58:30.225Z,25.67
2022-10-26T02:01:02.741Z,21.58
2022-10-26T02:03:39.803Z,17.30
2022-10-26T02:06:38.439Z,22.38
2022-10-26T02:09:18.517Z,17.52
2022-10-26T02:11:48.018Z,20.92
2022-10-26T02:14:17.501Z,27.50
2022-10-26T02:16:56.491Z,21.23
2022-10-26T02:19:26.157Z,20.38
2022-10-26T02:22:02.153Z,18.30
2022-10-26T02:24:30.834Z,19.70
2022-10-26T02:27:00.142Z,17.00
2022-10-26T02:29:28.851Z,18.58
2022-10-26T02:31:57.197Z,21.38
2022-10-26T02:34:29.134Z,14.18
2022-10-26T02:37:00.506Z,15.80
2022-10-26T02:39:32.560Z,17.40
2022-10-26T02:42:02.529Z,19.60
2022-10-26T02:44:59.682Z,16.85
2022-10-26T02:47:27.319Z,17.25
2022-10-26T02:49:55.182Z,17.90
2022-10-26T02:52:22.431Z,16.15
2022-10-26T02:55:08.225Z,24.42
2022-10-26T02:57:45.031Z,21.17
2022-10-26T03:00:17.309Z,24.42
2022-10-26T03:02:48.559Z,26.97
2022-10-26T03:05:27.783Z,20.23
2022-10-26T03:07:55.875Z,23.13
2022-10-26T03:10:23.180Z,22.92
2022-10-26T03:12:50.612Z,22.17
2022-10-26T03:15:18.368Z,19.70
2022-10-26T03:17:45.386Z,18.15
2022-10-26T03:20:12.844Z,21.02
2022-10-26T03:22:40.106Z,20.48
2022-10-26T03:27:35.901Z,18.38
2022-10-26T03:30:02.801Z,20.33
2022-10-26T03:32:29.673Z,21.27
2022-10-26T03:34:56.482Z,19.75
2022-10-26T03:37:23.408Z,24.38
2022-10-26T03:39:50.364Z,19.13
2022-10-26T03:42:17.242Z,17.83
2022-10-26T03:44:44.523Z,15.85
2022-10-26T03:47:11.326Z,20.92
2022-10-26T03:49:38.536Z,17.92
2022-10-26T03:52:05.413Z,20.63
2022-10-26T03:54:32.243Z,17.35
2022-10-26T03:56:59.447Z,20.92
2022-10-26T03:59:26.337Z,19.58
2022-10-26T04:01:56.733Z,19.67
2022-10-26T04:04:24.958Z,22.85
2022-10-26T04:06:52.484Z,20.40
2022-10-26T04:09:19.352Z,22.27
2022-10-26T04:11:46.607Z,19.67
2022-10-26T04:14:13.596Z,19.50
2022-10-26T04:16:40.556Z,27.45
2022-10-26T04:19:07.418Z,23.70
2022-10-26T04:21:35.500Z,21.55
2022-10-26T04:24:02.665Z,26.15
2022-10-26T04:26:29.534Z,24.38
2022-10-26T04:28:56.930Z,22.55
2022-10-26T04:31:23.834Z,22.48
2022-10-26T04:33:51.067Z,24.25
2022-10-26T04:36:17.966Z,22.95
2022-10-26T04:38:45.165Z,22.75
2022-10-26T04:41:12.367Z,21.40
2022-10-26T04:43:39.588Z,30.52
2022-10-26T04:46:06.821Z,30.00
2022-10-26T04:48:33.623Z,25.55
2022-10-26T04:51:01.114Z,24.00
2022-10-26T04:53:28.450Z,26.02
2022-10-26T04:55:59.105Z,27.27
2022-10-26T04:58:26.655Z,29.85
2022-10-26T05:00:53.980Z,26.33
2022-10-26T05:03:20.929Z,27.02
2022-10-26T05:05:48.166Z,33.22
2022-10-26T05:08:15.862Z,31.63
2022-10-26T05:10:42.988Z,32.97
2022-10-26T05:13:11.150Z,31.45
2022-10-26T05:15:38.057Z,37.55
2022-10-26T05:18:05.879Z,44.13
2022-10-26T05:20:35.274Z,34.90
2022-10-26T05:23:05.544Z,34.10
2022-10-26T05:25:36.149Z,37.40
2022-10-26T05:28:05.948Z,36.10
2022-10-26T05:30:32.869Z,41.95
2022-10-26T05:33:03.249Z,34.33
2022-10-26T05:35:30.849Z,34.88
2022-10-26T05:37:58.208Z,36.10
2022-10-26T05:40:25.641Z,41.72
2022-10-26T05:42:53.003Z,41.80
2022-10-26T05:45:20.144Z,49.03
2022-10-26T05:47:47.627Z,44.67
2022-10-26T05:50:15.163Z,39.15
2022-10-26T05:52:43.829Z,45.08
2022-10-26T05:55:12.897Z,46.10
2022-10-26T05:57:40.625Z,42.53
2022-10-26T06:00:10.419Z,42.50
2022-10-26T06:03:04.288Z,48.72
2022-10-26T06:05:52.385Z,56.20
2022-10-26T06:08:20.576Z,48.75
2022-10-26T06:10:49.478Z,46.65
2022-10-26T06:13:17.249Z,49.30
2022-10-26T06:16:09.598Z,49.60
2022-10-26T06:18:43.047Z,58.17
2022-10-26T06:21:30.365Z,55.22
2022-10-26T06:24:24.794Z,61.45
2022-10-26T06:27:10.529Z,56.90
2022-10-26T06:30:01.405Z,56.47
2022-10-26T06:32:29.086Z,55.25
2022-10-26T06:35:11.381Z,59.67
2022-10-26T06:37:39.763Z,54.97
2022-10-26T06:40:07.368Z,51.28
2022-10-26T06:42:34.438Z,63.10
2022-10-26T06:45:01.578Z,55.30
2022-10-26T06:47:50.768Z,62.58
2022-10-26T06:50:39.527Z,61.17
2022-10-26T06:53:29.609Z,50.58
2022-10-26T06:55:59.174Z,55.53
2022-10-26T06:58:31.111Z,58.15
2022-10-26T07:00:58.399Z,60.75
2022-10-26T07:03:25.964Z,62.80
2022-10-26T07:05:52.858Z,57.95
2022-10-26T07:08:19.818Z,59.92
2022-10-26T07:10:47.238Z,57.35
2022-10-26T07:13:14.118Z,53.85
2022-10-26T07:15:42.918Z,54.80
2022-10-26T07:18:10.546Z,59.53
2022-10-26T07:20:41.609Z,55.97
2022-10-26T07:23:13.219Z,50.47
2022-10-26T07:25:40.711Z,50.05
2022-10-26T07:28:10.526Z,46.13
2022-10-26T07:30:39.415Z,44.38
2022-10-26T07:33:12.224Z,50.75
2022-10-26T07:35:40.257Z,40.80
2022-10-26T07:38:09.006Z,44.05
2022-10-26T07:40:37.856Z,38.88
2022-10-26T07:43:05.470Z,36.30
2022-10-26T07:45:32.570Z,33.13
2022-10-26T07:47:59.487Z,36.20
2022-10-26T07:50:26.683Z,32.22
2022-10-26T07:52:54.493Z,33.55
2022-10-26T07:55:21.464Z,35.63
2022-10-26T07:57:51.043Z,33.10
2022-10-26T08:00:21.530Z,56.83
2022-10-26T08:02:48.913Z,31.98
2022-10-26T08:05:15.815Z,29.55
2022-10-26T08:07:44.678Z,29.65
2022-10-26T08:10:12.528Z,27.30
2022-10-26T08:12:40.223Z,30.65
2022-10-26T08:15:08.058Z,31.83
2022-10-26T08:17:34.938Z,29.90
2022-10-26T08:20:01.772Z,25.73
2022-10-26T08:22:31.768Z,32.88
2022-10-26T08:24:58.998Z,24.60
2022-10-26T08:27:26.334Z,28.70
2022-10-26T08:29:53.556Z,27.67
2022-10-26T08:32:20.488Z,27.65
2022-10-26T08:34:47.349Z,26.42
2022-10-26T08:37:14.196Z,25.67
2022-10-26T08:39:41.447Z,23.25
2022-10-26T08:42:16.944Z,25.77
2022-10-26T08:44:50.096Z,20.98
2022-10-26T08:49:59.923Z,24.20
2022-10-26T08:52:50.457Z,23.08
2022-10-26T08:55:21.279Z,24.90
2022-10-26T08:57:50.112Z,17.95
2022-10-26T09:00:25.463Z,21.30
2022-10-26T09:02:53.586Z,22.35
2022-10-26T09:05:36.098Z,21.08
2022-10-26T09:11:30.741Z,20.70
2022-10-26T09:14:23.861Z,18.98
2022-10-26T09:17:22.994Z,25.98
2022-10-26T09:20:26.852Z,19.10
2022-10-26T09:22:59.145Z,19.00
2022-10-26T09:25:29.689Z,22.30
2022-10-26T09:28:01.437Z,23.67
2022-10-26T09:30:30.406Z,26.40
2022-10-26T09:33:04.178Z,21.52
2022-10-26T09:35:49.959Z,23.75
2022-10-26T09:38:49.105Z,24.73
2022-10-26T09:41:37.699Z,23.88
2022-10-26T09:44:29.658Z,28.42
2022-10-26T09:47:14.942Z,24.40
2022-10-26T09:50:05.370Z,22.48
2022-10-26T09:52:32.228Z,31.88
2022-10-26T09:54:59.442Z,23.00
2022-10-26T09:57:27.257Z,25.52
2022-10-26T09:59:55.774Z,29.58
2022-10-26T10:02:47.169Z,23.30
2022-10-26T10:08:28.043Z,18.33
2022-10-26T10:10:58.381Z,24.40
2022-10-26T10:13:28.506Z,22.95
2022-10-26T10:16:01.203Z,22.55
2022-10-26T10:18:28.148Z,19.48
2022-10-26T10:20:58.322Z,25.08
2022-10-26T10:23:33.702Z,27.13
2022-10-26T10:26:13.905Z,23.73
2022-10-26T10:28:42.733Z,25.48
2022-10-26T10:31:20.115Z,19.98
2022-10-26T10:33:49.312Z,17.90
2022-10-26T10:36:20.540Z,22.70
2022-10-26T10:38:50.136Z,20.40
2022-10-26T10:41:22.305Z,38.22
2022-10-26T10:43:56.877Z,20.48
2022-10-26T10:46:27.259Z,22.63
2022-10-26T10:49:06.210Z,22.05
2022-10-26T10:51:40.192Z,21.02
2022-10-26T10:54:29.328Z,20.02
2022-10-26T10:57:18.293Z,23.35
2022-10-26T11:00:06.611Z,26.52
2022-10-26T11:02:45.559Z,24.27
2022-10-26T11:05:24.774Z,21.35
2022-10-26T11:07:58.538Z,20.08
2022-10-26T11:10:29.236Z,22.95
2022-10-26T11:13:01.052Z,19.15
2022-10-26T11:15:33.033Z,18.52
2022-10-26T11:18:14.702Z,22.30
2022-10-26T11:20:49.387Z,19.73
2022-10-26T11:23:16.310Z,15.93
2022-10-26T11:26:14.035Z,17.98
2022-10-26T11:29:19.346Z,12.77
2022-10-26T11:31:54.512Z,15.10
2022-10-26T11:34:38.248Z,14.05
2022-10-26T11:37:23.926Z,11.55
2022-10-26T11:40:26.529Z,10.27
2022-10-26T11:43:18.689Z,10.35
2022-10-26T11:45:57.526Z,10.75
2022-10-26T11:48:34.251Z,8.70
2022-10-26T11:51:01.796Z,9.90
2022-10-26T11:53:35.683Z,13.25
2022-10-26T11:56:05.409Z,8.82
2022-10-26T11:58:33.288Z,11.00
2022-10-26T12:01:09.241Z,13.15
2022-10-26T12:03:45.725Z,13.70
2022-10-26T12:06:15.405Z,10.80
2022-10-26T12:08:47.708Z,9.63
2022-10-26T12:11:38.743Z,19.50
2022-10-26T12:14:37.911Z,10.27
2022-10-26T12:17:15.072Z,11.02
2022-10-26T12:19:49.137Z,11.43
2022-10-26T12:22:19.288Z,9.32
2022-10-26T12:25:04.586Z,10.55
2022-10-26T12:27:31.851Z,11.88
2022-10-26T12:30:25.712Z,10.73
2022-10-26T12:32:58.574Z,12.10
2022-10-26T12:35:40.040Z,17.17
2022-10-26T12:38:27.947Z,10.77
2022-10-26T12:41:10.735Z,11.02
2022-10-26T12:43:40.068Z,14.18
2022-10-26T12:46:12.478Z,16.70
2022-10-26T12:48:47.877Z,8.85
2022-10-26T12:51:24.620Z,9.02
2022-10-26T12:53:54.495Z,10.07
2022-10-26T12:56:30.217Z,10.95
2022-10-26T12:59:23.702Z,14.20
2022-10-26T13:04:47.185Z,15.95
2022-10-26T13:07:33.819Z,13.13
2022-10-26T13:10:11.872Z,10.55
2022-10-26T13:12:54.731Z,11.25
2022-10-26T13:15:31.390Z,12.48
2022-10-26T13:17:58.590Z,17.42
2022-10-26T13:20:25.822Z,13.07
2022-10-26T13:22:53.820Z,10.90
2022-10-26T13:25:28.061Z,14.98
2022-10-26T13:28:07.127Z,11.30
2022-10-26T13:30:33.922Z,19.08
2022-10-26T13:33:02.876Z,13.07
2022-10-26T13:35:31.924Z,15.05
2022-10-26T13:38:07.196Z,16.10
2022-10-26T13:40:38.375Z,13.35
2022-10-26T13:43:12.470Z,15.50
2022-10-26T13:45:53.506Z,13.18
2022-10-26T13:48:39.895Z,16.85
2022-10-26T13:51:23.340Z,20.20
2022-10-26T13:53:55.998Z,19.65
2022-10-26T13:56:30.906Z,22.73
2022-10-26T13:59:09.794Z,24.67
2022-10-26T14:01:37.381Z,19.33
2022-10-26T14:04:28.096Z,31.77
2022-10-26T14:06:55.369Z,29.70
2022-10-26T14:09:22.962Z,16.38
2022-10-26T14:11:51.309Z,21.23
2022-10-26T14:14:22.719Z,24.05
2022-10-26T14:16:54.184Z,24.70
2022-10-26T14:19:36.108Z,25.95
2022-10-26T14:22:03.668Z,19.00
2022-10-26T14:24:48.197Z,15.82
2022-10-26T14:27:20.056Z,21.45
2022-10-26T14:29:58.534Z,21.75
2022-10-26T14:32:34.212Z,22.90
2022-10-26T14:35:01.221Z,17.67
2022-10-26T14:38:10.645Z,25.20
2022-10-26T14:40:37.691Z,18.92
2022-10-26T14:43:05.947Z,18.38
2022-10-26T14:45:48.474Z,18.73
2022-10-26T14:48:30.817Z,16.92
2022-10-26T14:51:18.095Z,20.10
2022-10-26T14:53:53.444Z,18.83
2022-10-26T14:56:36.786Z,21.95
2022-10-26T15:01:54.665Z,42.08
2022-10-26T15:04:39.254Z,31.25
2022-10-26T15:07:12.361Z,23.77
2022-10-26T15:12:38.822Z,36.80
2022-10-26T15:15:14.702Z,33.72
2022-10-26T15:17:53.767Z,28.42
2022-10-26T15:20:23.387Z,29.85
2022-10-26T15:22:58.769Z,30.15
2022-10-26T15:25:29.653Z,27.10
2022-10-26T15:28:12.429Z,28.17
2022-10-26T15:30:39.361Z,26.67
2022-10-26T15:33:22.142Z,29.30
2022-10-26T15:35:49.208Z,29.98
2022-10-26T15:38:16.435Z,32.78
2022-10-26T15:40:44.152Z,30.80
2022-10-26T15:43:12.504Z,32.90
2022-10-26T15:45:52.324Z,31.35
2022-10-26T15:48:31.093Z,38.08
2022-10-26T15:50:58.475Z,43.63
2022-10-26T15:53:29.533Z,47.45
2022-10-26T15:56:00.946Z,33.05
2022-10-26T15:58:31.307Z,31.00
2022-10-26T16:00:58.569Z,45.30
2022-10-26T16:03:26.894Z,34.97
2022-10-26T16:05:58.135Z,33.40
2022-10-26T16:08:27.868Z,31.05
2022-10-26T16:10:55.102Z,30.67
2022-10-26T16:13:22.008Z,29.58
2022-10-26T16:15:49.344Z,36.53
2022-10-26T16:18:16.198Z,33.08
2022-10-26T16:20:45.863Z,30.92
2022-10-26T16:23:13.406Z,29.63
2022-10-26T16:25:43.621Z,36.65
2022-10-26T16:28:16.351Z,32.60
2022-10-26T16:30:43.717Z,34.38
2022-10-26T16:33:10.693Z,34.40
2022-10-26T16:35:37.669Z,39.95
2022-10-26T16:38:04.587Z,37.95
2022-10-26T16:40:31.953Z,34.58
2022-10-26T16:42:58.838Z,38.33
2022-10-26T16:45:25.712Z,36.53
2022-10-26T16:47:52.860Z,38.67
2022-10-26T16:50:22.210Z,40.42
2022-10-26T16:52:49.147Z,58.35
2022-10-26T16:55:17.101Z,41.50
2022-10-26T16:57:44.408Z,35.35
2022-10-26T17:00:11.587Z,33.95
2022-10-26T17:02:39.671Z,35.47
2022-10-26T17:05:07.481Z,42.67
2022-10-26T17:07:35.097Z,40.33
2022-10-26T17:10:02.182Z,39.83
2022-10-26T17:12:29.507Z,45.25
2022-10-26T17:14:58.584Z,36.30
2022-10-26T17:17:25.424Z,44.05
2022-10-26T17:19:52.375Z,53.72
2022-10-26T17:22:19.269Z,57.95
2022-10-26T17:24:46.492Z,44.13
2022-10-26T17:27:14.223Z,37.10
2022-10-26T17:29:41.462Z,44.40
2022-10-26T17:32:08.716Z,36.22
2022-10-26T17:34:36.015Z,38.00
2022-10-26T17:37:02.859Z,44.17
2022-10-26T17:39:29.717Z,53.42
2022-10-26T17:41:56.612Z,36.90
2022-10-26T17:44:24.010Z,38.53
2022-10-26T17:46:51.241Z,31.25
2022-10-26T17:49:18.126Z,34.97
2022-10-26T17:51:44.986Z,37.40
2022-10-26T17:54:11.860Z,39.80
2022-10-26T17:56:39.375Z,38.97
2022-10-26T17:59:11.594Z,38.90
2022-10-26T18:01:39.044Z,122.50
2022-10-26T18:04:06.038Z,43.58
2022-10-26T18:06:32.962Z,40.80
2022-10-26T18:08:59.863Z,31.42
2022-10-26T18:11:28.603Z,39.20
2022-10-26T18:13:56.697Z,34.67
2022-10-26T18:16:25.067Z,33.33
2022-10-26T18:19:01.660Z,31.98
2022-10-26T18:21:30.897Z,33.35
2022-10-26T18:23:57.972Z,33.03
2022-10-26T18:26:29.178Z,33.03
2022-10-26T18:28:57.237Z,35.40
2022-10-26T18:31:25.236Z,39.75
2022-10-26T18:34:00.430Z,40.85
2022-10-26T18:36:28.748Z,37.15
2022-10-26T18:38:55.856Z,44.10
2022-10-26T18:41:23.908Z,48.30
2022-10-26T18:43:52.861Z,45.65
2022-10-26T18:46:25.391Z,54.58
2022-10-26T18:48:53.348Z,54.95
2022-10-26T18:51:23.035Z,51.75
2022-10-26T18:53:49.976Z,51.85
2022-10-26T18:56:19.437Z,51.60
2022-10-26T18:58:48.688Z,50.63
2022-10-26T19:01:25.521Z,52.65
2022-10-26T19:04:01.294Z,46.28
2022-10-26T19:06:49.031Z,48.47
2022-10-26T19:09:17.224Z,53.22
2022-10-26T19:11:44.841Z,60.72
2022-10-26T19:14:12.593Z,56.33
2022-10-26T19:16:45.958Z,63.05
2022-10-26T19:19:15.659Z,60.40
2022-10-26T19:21:42.673Z,49.28
2022-10-26T19:24:20.538Z,47.42
2022-10-26T19:26:50.347Z,50.65
2022-10-26T19:29:18.648Z,54.22
2022-10-26T19:31:46.810Z,55.35
2022-10-26T19:34:15.480Z,59.33
2022-10-26T19:36:45.081Z,46.63
2022-10-26T19:39:16.163Z,50.58
2022-10-26T19:41:43.920Z,50.42
2022-10-26T19:44:12.132Z,52.63
2022-10-26T19:46:40.156Z,46.75
2022-10-26T19:49:07.467Z,86.40
2022-10-26T19:51:34.354Z,54.63
2022-10-26T19:54:06.113Z,52.25
2022-10-26T19:56:34.725Z,55.10
2022-10-26T19:59:01.826Z,55.47
2022-10-26T20:01:29.083Z,51.63
2022-10-26T20:03:56.043Z,55.10
2022-10-26T20:06:23.191Z,50.70
2022-10-26T20:08:50.494Z,51.83
2022-10-26T20:11:18.265Z,54.08
2022-10-26T20:13:46.586Z,55.58
2022-10-26T20:16:14.547Z,49.30
2022-10-26T20:18:44.410Z,48.40
2022-10-26T20:21:17.015Z,56.03
2022-10-26T20:23:44.749Z,53.15
2022-10-26T20:26:18.744Z,53.28
2022-10-26T20:28:48.662Z,53.40
2022-10-26T20:31:15.643Z,50.45
2022-10-26T20:33:42.945Z,54.95
2022-10-26T20:36:10.572Z,54.70
2022-10-26T20:38:40.061Z,57.97
2022-10-26T20:41:11.207Z,59.13
2022-10-26T20:43:40.897Z,54.67
2022-10-26T20:46:11.533Z,55.35
2022-10-26T20:48:38.908Z,54.88
2022-10-26T20:51:16.684Z,55.50
2022-10-26T20:53:53.642Z,53.25
2022-10-26T20:56:27.794Z,56.83
2022-10-26T20:58:57.073Z,59.53
2022-10-26T21:01:25.673Z,55.03
2022-10-26T21:03:54.265Z,60.35
2022-10-26T21:06:21.787Z,59.40
2022-10-26T21:08:53.031Z,57.70
2022-10-26T21:11:21.780Z,58.00
2022-10-26T21:13:50.011Z,115.05
2022-10-26T21:16:17.966Z,58.38
2022-10-26T21:18:45.225Z,57.08
2022-10-26T21:21:12.753Z,61.13
2022-10-26T21:23:41.046Z,54.83
2022-10-26T21:26:09.264Z,54.80
2022-10-26T21:28:38.633Z,59.42
2022-10-26T21:31:07.083Z,58.80
2022-10-26T21:33:34.283Z,54.08
2022-10-26T21:36:06.351Z,58.78
2022-10-26T21:38:33.913Z,58.55
2022-10-26T21:41:09.883Z,51.17
2022-10-26T21:43:40.414Z,57.92
2022-10-26T21:46:08.018Z,65.80
2022-10-26T21:48:35.537Z,53.10
2022-10-26T21:51:07.005Z,53.38
2022-10-26T21:53:34.039Z,52.65
2022-10-26T21:56:16.962Z,51.75
2022-10-26T21:58:44.442Z,57.42
2022-10-26T22:01:20.097Z,53.47
2022-10-26T22:03:47.880Z,54.45
2022-10-26T22:06:17.141Z,53.10
2022-10-26T22:08:45.147Z,53.22
2022-10-26T22:11:15.565Z,51.75
2022-10-26T22:13:43.964Z,54.15
2022-10-26T22:16:24.158Z,59.28
2022-10-26T22:18:53.369Z,48.97
2022-10-26T22:21:21.996Z,53.95
2022-10-26T22:23:49.412Z,51.83
2022-10-26T22:26:19.254Z,51.80
2022-10-26T22:28:47.882Z,46.67
2022-10-26T22:31:17.876Z,51.90
2022-10-26T22:33:45.552Z,50.13
2022-10-26T22:36:14.594Z,47.50
2022-10-26T22:38:42.090Z,52.13
2022-10-26T22:41:10.369Z,49.15
2022-10-26T22:43:37.543Z,48.08
2022-10-26T22:46:18.389Z,52.30
2022-10-26T22:48:45.669Z,64.72
2022-10-26T22:51:18.827Z,56.30
2022-10-26T22:56:14.454Z,47.58
2022-10-26T22:58:42.505Z,46.33
2022-10-26T23:01:12.564Z,46.75
2022-10-26T23:03:39.741Z,51.03
2022-10-26T23:06:09.192Z,48.35
2022-10-26T23:08:36.330Z,51.03
2022-10-26T23:11:06.710Z,48.42
2022-10-26T23:13:33.950Z,45.97
2022-10-26T23:16:10.894Z,49.67
2022-10-26T23:18:38.762Z,47.95
2022-10-26T23:21:06.965Z,50.10
2022-10-26T23:23:34.030Z,47.90
2022-10-26T23:26:05.957Z,49.70
2022-10-26T23:28:33.862Z,45.55
2022-10-26T23:31:01.185Z,46.90
2022-10-26T23:33:28.704Z,52.30
2022-10-26T23:35:55.975Z,46.75
2022-10-26T23:38:23.499Z,45.40
2022-10-26T23:40:55.585Z,50.35
2022-10-26T23:43:23.341Z,48.03
2022-10-26T23:45:50.610Z,47.35
2022-10-26T23:48:19.411Z,47.88
2022-10-26T23:50:48.593Z,52.13
2022-10-26T23:53:18.638Z,49.72
2022-10-26T23:55:46.288Z,46.08
2022-10-26T23:58:14.022Z,47.88
